createdAt,value
2018-08-18T00:00:32.296Z,1012.54
2018-08-18T00:01:32.270Z,1012.54
2018-08-18T00:02:32.243Z,1012.51
2018-08-18T00:03:32.218Z,1012.54
2018-08-18T00:04:32.192Z,1012.52
2018-08-18T00:05:32.162Z,1012.54
2018-08-18T00:06:32.145Z,1012.54
2018-08-18T00:07:32.118Z,1012.54
2018-08-18T00:08:32.084Z,1012.57
2018-08-18T00:09:32.060Z,1012.56
2018-08-18T00:10:32.050Z,1012.58
2018-08-18T00:11:32.004Z,1012.58
2018-08-18T00:12:31.983Z,1012.60
2018-08-18T00:13:32.545Z,1012.60
2018-08-18T00:14:31.925Z,1012.60
2018-08-18T00:15:31.903Z,1012.60
2018-08-18T00:16:31.875Z,1012.63
2018-08-18T00:17:31.845Z,1012.58
2018-08-18T00:18:31.824Z,1012.60
2018-08-18T00:19:31.798Z,1012.64
2018-08-18T00:20:31.764Z,1012.59
2018-08-18T00:21:31.796Z,1012.62
2018-08-18T00:22:31.718Z,1012.62
2018-08-18T00:23:31.691Z,1012.60
2018-08-18T00:24:31.683Z,1012.62
2018-08-18T00:25:31.638Z,1012.62
2018-08-18T00:26:31.607Z,1012.61
2018-08-18T00:27:31.600Z,1012.61
2018-08-18T00:28:31.562Z,1012.57
2018-08-18T00:29:31.527Z,1012.58
2018-08-18T00:30:31.517Z,1012.59
2018-08-18T00:31:31.480Z,1012.62
2018-08-18T00:32:31.454Z,1012.62
2018-08-18T00:33:31.431Z,1012.63
2018-08-18T00:34:31.402Z,1012.61
2018-08-18T00:35:31.381Z,1012.69
2018-08-18T00:36:31.353Z,1012.68
2018-08-18T00:37:31.321Z,1012.72
2018-08-18T00:38:31.300Z,1012.72
2018-08-18T00:39:31.286Z,1012.73
2018-08-18T00:40:31.243Z,1012.74
2018-08-18T00:41:31.219Z,1012.75
2018-08-18T00:42:31.201Z,1012.76
2018-08-18T00:43:31.162Z,1012.79
2018-08-18T00:44:31.140Z,1012.77
2018-08-18T00:45:31.111Z,1012.80
2018-08-18T00:46:31.089Z,1012.79
2018-08-18T00:47:31.058Z,1012.82
2018-08-18T00:48:31.070Z,1012.83
2018-08-18T00:49:31.004Z,1012.83
2018-08-18T00:50:30.978Z,1012.87
2018-08-18T00:51:30.949Z,1012.85
2018-08-18T00:52:30.927Z,1012.84
2018-08-18T00:53:30.913Z,1012.88
2018-08-18T00:54:30.874Z,1012.87
2018-08-18T00:55:30.861Z,1012.90
2018-08-18T00:56:30.817Z,1012.86
2018-08-18T00:57:30.787Z,1012.87
2018-08-18T00:58:30.764Z,1012.90
2018-08-18T00:59:30.738Z,1012.97
2018-08-18T01:00:30.713Z,1012.93
2018-08-18T01:01:30.686Z,1012.94
2018-08-18T01:02:30.657Z,1012.97
2018-08-18T01:03:30.640Z,1013.00
2018-08-18T01:04:30.608Z,1012.96
2018-08-18T01:05:30.586Z,1012.97
2018-08-18T01:06:30.552Z,1012.94
2018-08-18T01:07:30.525Z,1012.93
2018-08-18T01:08:30.499Z,1012.94
2018-08-18T01:09:30.473Z,1012.98
2018-08-18T01:10:30.447Z,1012.96
2018-08-18T01:11:30.575Z,1012.96
2018-08-18T01:12:30.535Z,1012.98
2018-08-18T01:13:30.366Z,1013.02
2018-08-18T01:14:31.081Z,1013.02
2018-08-18T01:15:30.318Z,1013.01
2018-08-18T01:16:30.287Z,1013.08
2018-08-18T01:17:30.280Z,1013.09
2018-08-18T01:18:30.235Z,1013.09
2018-08-18T01:19:30.205Z,1013.10
2018-08-18T01:20:30.184Z,1013.10
2018-08-18T01:21:30.177Z,1013.07
2018-08-18T01:22:30.127Z,1013.07
2018-08-18T01:23:30.109Z,1013.11
2018-08-18T01:24:30.076Z,1013.09
2018-08-18T01:25:30.055Z,1013.10
2018-08-18T01:26:30.029Z,1013.07
2018-08-18T01:27:29.992Z,1013.07
2018-08-18T01:28:29.969Z,1013.07
2018-08-18T01:29:29.943Z,1013.06
2018-08-18T01:30:29.922Z,1013.07
2018-08-18T01:31:30.503Z,1013.13
2018-08-18T01:32:29.862Z,1013.10
2018-08-18T01:33:29.830Z,1013.13
2018-08-18T01:34:29.808Z,1013.12
2018-08-18T01:35:29.782Z,1013.13
2018-08-18T01:36:29.751Z,1013.15
2018-08-18T01:37:29.727Z,1013.12
2018-08-18T01:38:29.700Z,1013.13
2018-08-18T01:39:29.671Z,1013.18
2018-08-18T01:40:29.651Z,1013.11
2018-08-18T01:41:29.622Z,1013.14
2018-08-18T01:42:29.593Z,1013.14
2018-08-18T01:43:29.568Z,1013.16
2018-08-18T01:44:29.542Z,1013.18
2018-08-18T01:45:29.509Z,1013.17
2018-08-18T01:46:29.487Z,1013.15
2018-08-18T01:47:29.474Z,1013.15
2018-08-18T01:48:29.430Z,1013.14
2018-08-18T01:49:29.410Z,1013.13
2018-08-18T01:50:29.386Z,1013.14
2018-08-18T01:51:29.356Z,1013.13
2018-08-18T01:52:29.337Z,1013.14
2018-08-18T01:53:29.302Z,1013.13
2018-08-18T01:54:29.291Z,1013.10
2018-08-18T01:55:29.260Z,1013.12
2018-08-18T01:56:29.223Z,1013.14
2018-08-18T01:57:29.199Z,1013.17
2018-08-18T01:58:29.180Z,1013.20
2018-08-18T01:59:29.142Z,1013.18
2018-08-18T02:00:29.112Z,1013.18
2018-08-18T02:01:29.096Z,1013.19
2018-08-18T02:02:29.062Z,1013.20
2018-08-18T02:03:29.035Z,1013.19
2018-08-18T02:04:29.015Z,1013.20
2018-08-18T02:05:28.983Z,1013.21
2018-08-18T02:06:28.962Z,1013.20
2018-08-18T02:07:28.938Z,1013.22
2018-08-18T02:08:28.902Z,1013.23
2018-08-18T02:09:28.872Z,1013.23
2018-08-18T02:10:28.854Z,1013.25
2018-08-18T02:11:28.819Z,1013.21
2018-08-18T02:12:28.791Z,1013.21
2018-08-18T02:13:28.770Z,1013.20
2018-08-18T02:14:28.738Z,1013.21
2018-08-18T02:15:28.715Z,1013.16
2018-08-18T02:16:28.706Z,1013.18
2018-08-18T02:17:28.661Z,1013.19
2018-08-18T02:18:28.628Z,1013.20
2018-08-18T02:19:28.610Z,1013.23
2018-08-18T02:20:28.584Z,1013.23
2018-08-18T02:21:28.584Z,1013.26
2018-08-18T02:22:28.526Z,1013.25
2018-08-18T02:23:28.499Z,1013.25
2018-08-18T02:24:28.476Z,1013.27
2018-08-18T02:25:28.448Z,1013.26
2018-08-18T02:26:28.426Z,1013.27
2018-08-18T02:27:28.396Z,1013.25
2018-08-18T02:28:28.376Z,1013.22
2018-08-18T02:29:28.337Z,1013.22
2018-08-18T02:30:28.317Z,1013.18
2018-08-18T02:31:28.284Z,1013.17
2018-08-18T02:32:28.257Z,1013.20
2018-08-18T02:33:28.236Z,1013.21
2018-08-18T02:34:28.216Z,1013.17
2018-08-18T02:35:28.177Z,1013.13
2018-08-18T02:36:28.152Z,1013.20
2018-08-18T02:37:28.130Z,1013.18
2018-08-18T02:38:28.095Z,1013.17
2018-08-18T02:39:28.075Z,1013.20
2018-08-18T02:40:28.044Z,1013.22
2018-08-18T02:41:28.015Z,1013.21
2018-08-18T02:42:27.994Z,1013.20
2018-08-18T02:43:27.965Z,1013.23
2018-08-18T02:44:27.929Z,1013.19
2018-08-18T02:45:27.908Z,1013.19
2018-08-18T02:46:27.882Z,1013.12
2018-08-18T02:47:27.857Z,1013.13
2018-08-18T02:48:27.830Z,1013.12
2018-08-18T02:49:27.802Z,1013.12
2018-08-18T02:50:27.775Z,1013.16
2018-08-18T02:51:27.757Z,1013.16
2018-08-18T02:52:27.725Z,1013.16
2018-08-18T02:53:27.733Z,1013.18
2018-08-18T02:54:27.670Z,1013.21
2018-08-18T02:55:27.643Z,1013.21
2018-08-18T02:56:27.613Z,1013.25
2018-08-18T02:57:27.588Z,1013.25
2018-08-18T02:58:27.557Z,1013.28
2018-08-18T02:59:27.532Z,1013.30
2018-08-18T03:00:27.504Z,1013.37
2018-08-18T03:01:27.482Z,1013.30
2018-08-18T03:02:27.449Z,1013.33
2018-08-18T03:03:27.426Z,1013.34
2018-08-18T03:04:27.421Z,1013.34
2018-08-18T03:05:27.365Z,1013.33
2018-08-18T03:06:27.332Z,1013.28
2018-08-18T03:07:27.315Z,1013.31
2018-08-18T03:08:27.286Z,1013.31
2018-08-18T03:09:27.263Z,1013.32
2018-08-18T03:10:27.245Z,1013.33
2018-08-18T03:11:27.204Z,1013.36
2018-08-18T03:12:27.185Z,1013.37
2018-08-18T03:13:27.165Z,1013.40
2018-08-18T03:14:27.124Z,1013.39
2018-08-18T03:15:27.092Z,1013.40
2018-08-18T03:16:27.071Z,1013.43
2018-08-18T03:17:27.042Z,1013.43
2018-08-18T03:18:27.007Z,1013.45
2018-08-18T03:19:27.001Z,1013.47
2018-08-18T03:20:26.960Z,1013.48
2018-08-18T03:21:26.934Z,1013.49
2018-08-18T03:22:26.912Z,1013.49
2018-08-18T03:23:26.878Z,1013.50
2018-08-18T03:24:26.852Z,1013.48
2018-08-18T03:25:26.837Z,1013.52
2018-08-18T03:26:26.798Z,1013.51
2018-08-18T03:27:26.784Z,1013.55
2018-08-18T03:28:26.748Z,1013.57
2018-08-18T03:29:26.716Z,1013.54
2018-08-18T03:30:26.690Z,1013.55
2018-08-18T03:31:26.696Z,1013.56
2018-08-18T03:32:26.643Z,1013.55
2018-08-18T03:33:26.600Z,1013.57
2018-08-18T03:34:26.602Z,1013.59
2018-08-18T03:35:26.561Z,1013.59
2018-08-18T03:36:26.530Z,1013.63
2018-08-18T03:37:26.515Z,1013.62
2018-08-18T03:38:26.472Z,1013.58
2018-08-18T03:39:26.438Z,1013.58
2018-08-18T03:40:26.413Z,1013.58
2018-08-18T03:41:26.392Z,1013.65
2018-08-18T03:42:26.360Z,1013.66
2018-08-18T03:43:26.353Z,1013.65
2018-08-18T03:44:26.310Z,1013.66
2018-08-18T03:45:26.278Z,1013.61
2018-08-18T03:46:26.270Z,1013.61
2018-08-18T03:47:26.226Z,1013.63
2018-08-18T03:48:26.194Z,1013.66
2018-08-18T03:49:26.191Z,1013.66
2018-08-18T03:50:26.146Z,1013.67
2018-08-18T03:51:26.116Z,1013.67
2018-08-18T03:52:26.191Z,1013.70
2018-08-18T03:53:26.065Z,1013.69
2018-08-18T03:54:26.034Z,1013.69
2018-08-18T03:55:26.010Z,1013.71
2018-08-18T03:56:25.984Z,1013.69
2018-08-18T03:57:25.950Z,1013.73
2018-08-18T03:58:25.942Z,1013.74
2018-08-18T03:59:25.901Z,1013.73
2018-08-18T04:00:25.869Z,1013.73
2018-08-18T04:01:25.883Z,1013.75
2018-08-18T04:02:25.821Z,1013.75
2018-08-18T04:03:25.800Z,1013.73
2018-08-18T04:04:25.766Z,1013.75
2018-08-18T04:05:25.739Z,1013.75
2018-08-18T04:06:25.705Z,1013.79
2018-08-18T04:07:25.686Z,1013.80
2018-08-18T04:08:25.657Z,1013.80
2018-08-18T04:09:25.710Z,1013.77
2018-08-18T04:10:25.603Z,1013.81
2018-08-18T04:11:25.575Z,1013.83
2018-08-18T04:12:25.549Z,1013.81
2018-08-18T04:13:25.521Z,1013.81
2018-08-18T04:14:25.546Z,1013.82
2018-08-18T04:15:25.464Z,1013.87
2018-08-18T04:16:25.440Z,1013.85
2018-08-18T04:17:25.415Z,1013.81
2018-08-18T04:18:25.386Z,1013.84
2018-08-18T04:19:25.361Z,1013.84
2018-08-18T04:20:25.345Z,1013.85
2018-08-18T04:21:25.301Z,1013.85
2018-08-18T04:22:25.283Z,1013.89
2018-08-18T04:23:25.252Z,1013.87
2018-08-18T04:24:25.221Z,1013.89
2018-08-18T04:25:25.268Z,1013.86
2018-08-18T04:26:25.172Z,1013.91
2018-08-18T04:27:25.143Z,1013.90
2018-08-18T04:28:25.120Z,1013.88
2018-08-18T04:29:25.092Z,1013.87
2018-08-18T04:30:25.057Z,1013.93
2018-08-18T04:31:25.037Z,1013.89
2018-08-18T04:32:25.012Z,1013.87
2018-08-18T04:33:24.977Z,1013.87
2018-08-18T04:34:24.956Z,1013.82
2018-08-18T04:35:24.974Z,1013.84
2018-08-18T04:36:24.899Z,1013.79
2018-08-18T04:37:24.875Z,1013.82
2018-08-18T04:38:24.856Z,1013.78
2018-08-18T04:39:24.824Z,1013.78
2018-08-18T04:40:24.801Z,1013.78
2018-08-18T04:41:24.771Z,1013.81
2018-08-18T04:42:24.740Z,1013.83
2018-08-18T04:43:24.740Z,1013.85
2018-08-18T04:44:24.688Z,1013.87
2018-08-18T04:45:24.658Z,1013.85
2018-08-18T04:46:24.635Z,1013.88
2018-08-18T04:47:24.612Z,1013.86
2018-08-18T04:48:24.586Z,1013.91
2018-08-18T04:49:24.566Z,1013.97
2018-08-18T04:50:24.566Z,1013.92
2018-08-18T04:51:24.506Z,1013.97
2018-08-18T04:52:24.495Z,1013.98
2018-08-18T04:53:24.453Z,1013.93
2018-08-18T04:54:24.422Z,1013.90
2018-08-18T04:55:24.412Z,1013.94
2018-08-18T04:56:24.375Z,1014.01
2018-08-18T04:57:24.354Z,1014.03
2018-08-18T04:58:24.323Z,1014.09
2018-08-18T04:59:24.394Z,1014.06
2018-08-18T05:00:24.271Z,1014.05
2018-08-18T05:01:31.864Z,1013.94
2018-08-18T05:03:17.378Z,1013.91
2018-08-18T05:04:17.318Z,1013.88
2018-08-18T05:06:10.659Z,1013.86
2018-08-18T05:07:10.604Z,1013.88
2018-08-18T05:09:03.749Z,1013.89
2018-08-18T05:10:03.687Z,1013.88
2018-08-18T05:11:56.793Z,1013.92
2018-08-18T05:12:56.775Z,1013.91
2018-08-18T05:14:50.102Z,1013.93
2018-08-18T05:15:50.050Z,1013.97
2018-08-18T05:17:43.379Z,1013.95
2018-08-18T05:18:43.327Z,1013.96
2018-08-18T05:20:36.640Z,1013.92
2018-08-18T05:21:36.611Z,1013.91
2018-08-18T05:23:29.736Z,1013.90
2018-08-18T05:24:29.695Z,1013.93
2018-08-18T05:26:22.532Z,1014.00
2018-08-18T05:27:22.489Z,1014.01
2018-08-18T05:28:22.457Z,1014.01
2018-08-18T05:29:22.433Z,1014.02
2018-08-18T05:30:22.405Z,1014.01
2018-08-18T05:31:22.380Z,1014.02
2018-08-18T05:32:22.362Z,1014.05
2018-08-18T05:33:22.330Z,1014.02
2018-08-18T05:34:22.306Z,1014.05
2018-08-18T05:35:22.277Z,1014.06
2018-08-18T05:36:22.319Z,1014.05
2018-08-18T05:37:22.227Z,1014.05
2018-08-18T05:38:22.213Z,1014.04
2018-08-18T05:39:22.177Z,1014.06
2018-08-18T05:40:22.152Z,1014.04
2018-08-18T05:41:22.130Z,1014.03
2018-08-18T05:42:22.105Z,1014.01
2018-08-18T05:43:22.101Z,1013.97
2018-08-18T05:44:22.061Z,1013.97
2018-08-18T05:45:22.028Z,1013.98
2018-08-18T05:46:22.034Z,1013.97
2018-08-18T05:47:22.005Z,1013.96
2018-08-18T05:48:21.961Z,1013.96
2018-08-18T05:49:21.971Z,1013.97
2018-08-18T05:50:21.921Z,1013.97
2018-08-18T05:51:21.876Z,1014.02
2018-08-18T05:52:21.887Z,1013.96
2018-08-18T05:53:21.824Z,1013.97
2018-08-18T05:54:21.794Z,1013.97
2018-08-18T05:55:21.775Z,1013.96
2018-08-18T05:56:21.796Z,1013.96
2018-08-18T05:57:21.760Z,1013.95
2018-08-18T05:58:21.698Z,1013.96
2018-08-18T05:59:21.679Z,1013.93
2018-08-18T06:00:21.653Z,1013.97
2018-08-18T06:01:21.635Z,1013.97
2018-08-18T06:02:21.646Z,1014.00
2018-08-18T06:03:21.574Z,1014.00
2018-08-18T06:04:21.560Z,1013.99
2018-08-18T06:05:21.531Z,1014.04
2018-08-18T06:06:21.504Z,1014.03
2018-08-18T06:07:21.529Z,1013.99
2018-08-18T06:08:21.463Z,1014.00
2018-08-18T06:09:21.429Z,1014.03
2018-08-18T06:10:21.416Z,1014.02
2018-08-18T06:11:21.377Z,1013.98
2018-08-18T06:12:21.358Z,1014.03
2018-08-18T06:13:22.127Z,1014.03
2018-08-18T06:14:21.324Z,1014.00
2018-08-18T06:15:21.318Z,1014.00
2018-08-18T06:16:21.282Z,1014.01
2018-08-18T06:17:21.242Z,1014.06
2018-08-18T06:18:21.215Z,1014.05
2018-08-18T06:19:21.189Z,1014.08
2018-08-18T06:20:21.179Z,1014.10
2018-08-18T06:21:21.170Z,1014.10
2018-08-18T06:22:21.117Z,1014.13
2018-08-18T06:23:21.106Z,1014.07
2018-08-18T06:24:21.065Z,1014.12
2018-08-18T06:25:21.071Z,1014.12
2018-08-18T06:26:21.018Z,1014.12
2018-08-18T06:27:20.986Z,1014.14
2018-08-18T06:28:20.977Z,1014.16
2018-08-18T06:29:20.976Z,1014.12
2018-08-18T06:30:20.923Z,1014.14
2018-08-18T06:31:20.905Z,1014.13
2018-08-18T06:32:20.867Z,1014.15
2018-08-18T06:33:20.854Z,1014.13
2018-08-18T06:34:20.825Z,1014.12
2018-08-18T06:35:20.796Z,1014.14
2018-08-18T06:36:20.799Z,1014.14
2018-08-18T06:37:20.798Z,1014.13
2018-08-18T06:38:20.727Z,1014.14
2018-08-18T06:39:20.716Z,1014.15
2018-08-18T06:40:20.669Z,1014.15
2018-08-18T06:41:20.707Z,1014.13
2018-08-18T06:43:20.620Z,1014.17
2018-08-18T06:44:20.588Z,1014.16
2018-08-18T06:45:20.556Z,1014.18
2018-08-18T06:46:20.529Z,1014.13
2018-08-18T06:47:20.519Z,1014.15
2018-08-18T06:48:20.508Z,1014.17
2018-08-18T06:49:20.448Z,1014.18
2018-08-18T06:50:20.439Z,1014.19
2018-08-18T06:51:20.404Z,1014.24
2018-08-18T06:52:20.385Z,1014.21
2018-08-18T06:53:20.353Z,1014.19
2018-08-18T06:54:20.369Z,1014.24
2018-08-18T06:55:20.310Z,1014.22
2018-08-18T06:56:20.296Z,1014.19
2018-08-18T06:57:20.260Z,1014.21
2018-08-18T06:58:20.234Z,1014.22
2018-08-18T06:59:20.222Z,1014.24
2018-08-18T07:00:20.196Z,1014.25
2018-08-18T07:01:20.163Z,1014.21
2018-08-18T07:02:20.143Z,1014.22
2018-08-18T07:03:20.129Z,1014.21
2018-08-18T07:04:20.087Z,1014.17
2018-08-18T07:05:20.075Z,1014.17
2018-08-18T07:06:20.051Z,1014.21
2018-08-18T07:07:20.034Z,1014.14
2018-08-18T07:08:19.995Z,1014.18
2018-08-18T07:09:19.979Z,1014.17
2018-08-18T07:10:19.979Z,1014.18
2018-08-18T07:11:19.936Z,1014.17
2018-08-18T07:12:19.898Z,1014.16
2018-08-18T07:13:19.876Z,1014.19
2018-08-18T07:14:19.853Z,1014.18
2018-08-18T07:15:19.833Z,1014.14
2018-08-18T07:16:19.821Z,1014.20
2018-08-18T07:17:19.797Z,1014.16
2018-08-18T07:18:19.768Z,1014.16
2018-08-18T07:19:19.807Z,1014.17
2018-08-18T07:20:19.714Z,1014.14
2018-08-18T07:21:19.696Z,1014.10
2018-08-18T07:22:19.672Z,1014.14
2018-08-18T07:23:19.639Z,1014.11
2018-08-18T07:24:19.622Z,1014.12
2018-08-18T07:25:19.593Z,1014.12
2018-08-18T07:26:19.570Z,1014.10
2018-08-18T07:27:19.557Z,1014.12
2018-08-18T07:28:19.595Z,1014.11
2018-08-18T07:29:19.511Z,1014.09
2018-08-18T07:30:19.484Z,1014.09
2018-08-18T07:31:19.461Z,1014.05
2018-08-18T07:32:19.443Z,1014.04
2018-08-18T07:33:19.415Z,1014.04
2018-08-18T07:34:19.402Z,1014.00
2018-08-18T07:35:19.370Z,1014.02
2018-08-18T07:36:19.357Z,1014.03
2018-08-18T07:37:19.354Z,1014.03
2018-08-18T07:38:19.303Z,1014.04
2018-08-18T07:39:19.298Z,1014.05
2018-08-18T07:40:19.271Z,1014.09
2018-08-18T07:41:19.236Z,1014.13
2018-08-18T07:42:19.215Z,1014.18
2018-08-18T07:43:19.190Z,1014.16
2018-08-18T07:44:19.174Z,1014.18
2018-08-18T07:45:19.147Z,1014.14
2018-08-18T07:46:19.138Z,1014.19
2018-08-18T07:47:19.105Z,1014.16
2018-08-18T07:48:19.080Z,1014.20
2018-08-18T07:49:19.060Z,1014.19
2018-08-18T07:50:19.650Z,1014.18
2018-08-18T07:51:19.020Z,1014.23
2018-08-18T07:52:18.990Z,1014.28
2018-08-18T07:53:19.098Z,1014.31
2018-08-18T07:54:18.945Z,1014.33
2018-08-18T07:55:18.925Z,1014.35
2018-08-18T07:56:18.903Z,1014.34
2018-08-18T07:57:18.889Z,1014.33
2018-08-18T07:58:18.872Z,1014.34
2018-08-18T07:59:18.836Z,1014.32
2018-08-18T08:00:18.822Z,1014.33
2018-08-18T08:01:18.805Z,1014.31
2018-08-18T08:02:18.771Z,1014.26
2018-08-18T08:03:18.749Z,1014.27
2018-08-18T08:04:18.735Z,1014.26
2018-08-18T08:05:18.706Z,1014.20
2018-08-18T08:06:18.687Z,1014.22
2018-08-18T08:07:18.671Z,1014.21
2018-08-18T08:08:18.638Z,1014.24
2018-08-18T08:09:18.628Z,1014.27
2018-08-18T08:10:18.601Z,1014.29
2018-08-18T08:11:18.579Z,1014.27
2018-08-18T08:12:18.557Z,1014.25
2018-08-18T08:13:18.534Z,1014.26
2018-08-18T08:14:18.513Z,1014.24
2018-08-18T08:15:18.486Z,1014.18
2018-08-18T08:16:18.480Z,1014.22
2018-08-18T08:17:18.448Z,1014.22
2018-08-18T08:18:18.462Z,1014.25
2018-08-18T08:19:18.406Z,1014.27
2018-08-18T08:20:18.383Z,1014.27
2018-08-18T08:21:18.362Z,1014.22
2018-08-18T08:22:18.343Z,1014.20
2018-08-18T08:23:18.319Z,1014.23
2018-08-18T08:24:18.300Z,1014.24
2018-08-18T08:25:18.276Z,1014.20
2018-08-18T08:26:18.253Z,1014.21
2018-08-18T08:27:18.234Z,1014.25
2018-08-18T08:28:18.216Z,1014.22
2018-08-18T08:29:18.198Z,1014.23
2018-08-18T08:30:18.178Z,1014.20
2018-08-18T08:31:18.151Z,1014.27
2018-08-18T08:32:18.132Z,1014.26
2018-08-18T08:33:18.104Z,1014.27
2018-08-18T08:34:18.094Z,1014.29
2018-08-18T08:35:18.064Z,1014.32
2018-08-18T08:36:18.044Z,1014.27
2018-08-18T08:37:18.022Z,1014.33
2018-08-18T08:38:18.003Z,1014.30
2018-08-18T08:39:17.980Z,1014.30
2018-08-18T08:40:17.980Z,1014.31
2018-08-18T08:41:17.940Z,1014.33
2018-08-18T08:42:17.921Z,1014.34
2018-08-18T08:43:17.947Z,1014.29
2018-08-18T08:44:17.872Z,1014.31
2018-08-18T08:45:17.874Z,1014.30
2018-08-18T08:46:17.837Z,1014.34
2018-08-18T08:47:17.818Z,1014.34
2018-08-18T08:48:17.794Z,1014.28
2018-08-18T08:49:17.774Z,1014.32
2018-08-18T08:50:17.751Z,1014.32
2018-08-18T08:51:17.725Z,1014.30
2018-08-18T08:52:17.715Z,1014.27
2018-08-18T08:53:17.687Z,1014.32
2018-08-18T08:54:17.677Z,1014.28
2018-08-18T08:55:17.645Z,1014.26
2018-08-18T08:56:17.643Z,1014.34
2018-08-18T08:57:17.609Z,1014.35
2018-08-18T08:58:17.591Z,1014.36
2018-08-18T08:59:17.567Z,1014.34
2018-08-18T09:00:17.548Z,1014.31
2018-08-18T09:01:17.556Z,1014.35
2018-08-18T09:02:17.511Z,1014.34
2018-08-18T09:03:17.493Z,1014.35
2018-08-18T09:04:17.467Z,1014.33
2018-08-18T09:05:17.468Z,1014.33
2018-08-18T09:06:17.428Z,1014.30
2018-08-18T09:07:17.444Z,1014.31
2018-08-18T09:08:17.391Z,1014.26
2018-08-18T09:09:17.367Z,1014.28
2018-08-18T09:10:17.348Z,1014.25
2018-08-18T09:11:17.367Z,1014.23
2018-08-18T09:12:17.305Z,1014.25
2018-08-18T09:13:17.285Z,1014.27
2018-08-18T09:14:17.269Z,1014.30
2018-08-18T09:15:18.154Z,1014.31
2018-08-18T09:16:17.224Z,1014.33
2018-08-18T09:17:17.211Z,1014.29
2018-08-18T09:18:17.185Z,1014.28
2018-08-18T09:19:17.165Z,1014.27
2018-08-18T09:20:17.151Z,1014.27
2018-08-18T09:21:17.121Z,1014.26
2018-08-18T09:22:17.112Z,1014.25
2018-08-18T09:23:17.088Z,1014.27
2018-08-18T09:24:17.080Z,1014.25
2018-08-18T09:25:17.042Z,1014.24
2018-08-18T09:26:17.043Z,1014.21
2018-08-18T09:27:17.008Z,1014.22
2018-08-18T09:28:16.989Z,1014.26
2018-08-18T09:29:17.676Z,1014.21
2018-08-18T09:30:16.956Z,1014.19
2018-08-18T09:31:16.929Z,1014.16
2018-08-18T09:32:16.911Z,1014.16
2018-08-18T09:33:16.888Z,1014.22
2018-08-18T09:34:16.873Z,1014.20
2018-08-18T09:35:16.854Z,1014.21
2018-08-18T09:36:17.692Z,1014.19
2018-08-18T09:37:16.817Z,1014.19
2018-08-18T09:38:16.819Z,1014.23
2018-08-18T09:39:16.778Z,1014.22
2018-08-18T09:40:16.760Z,1014.19
2018-08-18T09:41:16.748Z,1014.13
2018-08-18T09:42:16.721Z,1014.13
2018-08-18T09:43:16.701Z,1014.10
2018-08-18T09:44:16.688Z,1014.11
2018-08-18T09:45:16.696Z,1014.11
2018-08-18T09:46:16.699Z,1014.15
2018-08-18T09:47:16.629Z,1014.14
2018-08-18T09:48:16.617Z,1014.10
2018-08-18T09:49:16.590Z,1014.11
2018-08-18T09:50:16.572Z,1014.10
2018-08-18T09:51:16.550Z,1014.13
2018-08-18T09:52:16.543Z,1014.12
2018-08-18T09:53:16.521Z,1014.05
2018-08-18T09:54:16.498Z,1014.08
2018-08-18T09:55:16.480Z,1014.10
2018-08-18T09:56:16.467Z,1014.05
2018-08-18T09:57:16.443Z,1014.08
2018-08-18T09:58:16.424Z,1014.06
2018-08-18T09:59:16.463Z,1014.09
2018-08-18T10:00:16.393Z,1014.11
2018-08-18T10:01:16.372Z,1014.11
2018-08-18T10:02:16.354Z,1014.11
2018-08-18T10:03:17.170Z,1014.09
2018-08-18T10:04:16.359Z,1014.13
2018-08-18T10:05:16.294Z,1014.16
2018-08-18T10:06:16.288Z,1014.14
2018-08-18T10:07:16.262Z,1014.13
2018-08-18T10:08:16.248Z,1014.14
2018-08-18T10:09:17.176Z,1014.12
2018-08-18T10:10:16.207Z,1014.11
2018-08-18T10:11:16.187Z,1014.10
2018-08-18T10:12:16.172Z,1014.15
2018-08-18T10:13:16.154Z,1014.16
2018-08-18T10:14:16.138Z,1014.08
2018-08-18T10:15:16.164Z,1014.09
2018-08-18T10:16:16.105Z,1014.09
2018-08-18T10:17:16.078Z,1014.05
2018-08-18T10:18:16.064Z,1014.10
2018-08-18T10:19:16.045Z,1014.08
2018-08-18T10:20:16.027Z,1014.05
2018-08-18T10:21:16.008Z,1014.04
2018-08-18T10:22:15.999Z,1014.10
2018-08-18T10:23:15.974Z,1014.07
2018-08-18T10:24:15.957Z,1014.08
2018-08-18T10:25:15.933Z,1014.10
2018-08-18T10:26:15.929Z,1014.09
2018-08-18T10:27:15.946Z,1014.03
2018-08-18T10:28:15.885Z,1014.03
2018-08-18T10:29:15.866Z,1014.02
2018-08-18T10:30:15.858Z,1013.99
2018-08-18T10:31:15.831Z,1013.99
2018-08-18T10:32:15.824Z,1014.01
2018-08-18T10:33:15.810Z,1013.96
2018-08-18T10:34:15.780Z,1013.97
2018-08-18T10:35:15.760Z,1013.92
2018-08-18T10:36:15.750Z,1013.99
2018-08-18T10:37:15.727Z,1013.99
2018-08-18T10:38:15.712Z,1014.02
2018-08-18T10:39:15.687Z,1014.02
2018-08-18T10:40:15.674Z,1014.00
2018-08-18T10:41:15.647Z,1013.98
2018-08-18T10:42:15.743Z,1014.04
2018-08-18T10:43:15.616Z,1014.02
2018-08-18T10:44:15.648Z,1013.97
2018-08-18T10:45:15.590Z,1014.01
2018-08-18T10:46:15.564Z,1014.00
2018-08-18T10:47:15.546Z,1013.98
2018-08-18T10:48:15.529Z,1014.03
2018-08-18T10:49:15.516Z,1014.04
2018-08-18T10:50:15.495Z,1014.01
2018-08-18T10:51:15.477Z,1014.03
2018-08-18T10:52:15.457Z,1013.97
2018-08-18T10:53:15.443Z,1014.02
2018-08-18T10:54:15.423Z,1013.98
2018-08-18T10:55:15.404Z,1014.01
2018-08-18T10:56:15.389Z,1014.01
2018-08-18T10:57:15.367Z,1014.04
2018-08-18T10:58:15.350Z,1014.00
2018-08-18T10:59:15.335Z,1014.05
2018-08-18T11:00:15.316Z,1014.06
2018-08-18T11:01:15.299Z,1014.07
2018-08-18T11:02:15.279Z,1014.05
2018-08-18T11:03:15.312Z,1014.04
2018-08-18T11:04:15.244Z,1014.08
2018-08-18T11:05:15.225Z,1014.04
2018-08-18T11:06:15.208Z,1014.05
2018-08-18T11:07:15.188Z,1014.07
2018-08-18T11:08:15.172Z,1014.05
2018-08-18T11:09:15.156Z,1014.07
2018-08-18T11:10:15.133Z,1014.08
2018-08-18T11:11:15.130Z,1014.03
2018-08-18T11:12:15.101Z,1014.04
2018-08-18T11:13:15.082Z,1014.05
2018-08-18T11:14:15.062Z,1014.08
2018-08-18T11:15:15.050Z,1014.04
2018-08-18T11:16:15.028Z,1014.04
2018-08-18T11:17:15.008Z,1014.05
2018-08-18T11:18:14.986Z,1014.00
2018-08-18T11:19:14.981Z,1014.08
2018-08-18T11:20:14.963Z,1014.08
2018-08-18T11:21:14.946Z,1014.08
2018-08-18T11:22:14.917Z,1014.05
2018-08-18T11:23:14.908Z,1014.07
2018-08-18T11:24:14.884Z,1013.99
2018-08-18T11:25:14.870Z,1014.04
2018-08-18T11:26:14.842Z,1014.01
2018-08-18T11:27:14.834Z,1013.91
2018-08-18T11:28:14.815Z,1013.97
2018-08-18T11:29:14.802Z,1013.90
2018-08-18T11:30:14.775Z,1013.96
2018-08-18T11:31:14.765Z,1013.94
2018-08-18T11:32:14.745Z,1013.96
2018-08-18T11:33:14.723Z,1013.90
2018-08-18T11:34:14.706Z,1013.98
2018-08-18T11:35:14.768Z,1013.98
2018-08-18T11:36:14.668Z,1013.95
2018-08-18T11:37:14.650Z,1013.90
2018-08-18T11:38:14.643Z,1013.95
2018-08-18T11:39:14.630Z,1013.97
2018-08-18T11:40:14.599Z,1013.92
2018-08-18T11:41:14.581Z,1013.87
2018-08-18T11:42:14.572Z,1013.90
2018-08-18T11:43:14.550Z,1013.89
2018-08-18T11:44:14.528Z,1013.87
2018-08-18T11:45:14.507Z,1013.90
2018-08-18T11:46:14.495Z,1013.89
2018-08-18T11:47:14.472Z,1013.90
2018-08-18T11:48:14.456Z,1013.87
2018-08-18T11:49:14.436Z,1013.86
2018-08-18T11:50:14.423Z,1013.89
2018-08-18T11:51:14.399Z,1013.94
2018-08-18T11:52:14.382Z,1013.90
2018-08-18T11:53:14.368Z,1013.92
2018-08-18T11:54:14.345Z,1013.91
2018-08-18T11:55:14.325Z,1013.92
2018-08-18T11:56:14.310Z,1013.94
2018-08-18T11:57:14.295Z,1013.97
2018-08-18T11:58:14.275Z,1013.91
2018-08-18T11:59:14.257Z,1013.90
2018-08-18T12:00:14.236Z,1013.85
2018-08-18T12:01:14.223Z,1013.86
2018-08-18T12:02:14.204Z,1013.83
2018-08-18T12:03:14.181Z,1013.83
2018-08-18T12:04:14.188Z,1013.79
2018-08-18T12:05:14.150Z,1013.79
2018-08-18T12:06:14.145Z,1013.80
2018-08-18T12:07:14.116Z,1013.82
2018-08-18T12:08:14.106Z,1013.78
2018-08-18T12:09:14.085Z,1013.77
2018-08-18T12:10:14.069Z,1013.76
2018-08-18T12:11:14.045Z,1013.73
2018-08-18T12:12:14.029Z,1013.70
2018-08-18T12:13:14.013Z,1013.71
2018-08-18T12:14:13.996Z,1013.68